createdAt,value
2023-02-11T00:00:43.326Z,26.60
2023-02-11T00:03:11.069Z,29.20
2023-02-11T00:05:38.482Z,24.53
2023-02-11T00:08:05.928Z,31.40
2023-02-11T00:10:33.076Z,30.80
2023-02-11T00:13:00.220Z,29.67
2023-02-11T00:15:27.345Z,33.40
2023-02-11T00:17:54.477Z,31.53
2023-02-11T00:20:21.635Z,24.57
2023-02-11T00:22:48.813Z,30.77
2023-02-11T00:25:15.942Z,31.57
2023-02-11T00:27:43.070Z,34.97
2023-02-11T00:30:11.674Z,33.13
2023-02-11T00:32:38.845Z,23.90
2023-02-11T00:35:06.119Z,34.07
2023-02-11T00:37:36.371Z,29.67
2023-02-11T00:40:06.653Z,26.50
2023-02-11T00:42:35.620Z,26.47
2023-02-11T00:45:03.366Z,25.60
2023-02-11T00:47:30.575Z,19.93
2023-02-11T00:49:57.688Z,17.23
2023-02-11T00:52:24.888Z,25.83
2023-02-11T00:54:52.047Z,25.37
2023-02-11T00:57:19.200Z,26.30
2023-02-11T00:59:46.313Z,33.00
2023-02-11T01:02:13.439Z,24.97
2023-02-11T01:04:40.599Z,25.33
2023-02-11T01:07:07.741Z,22.90
2023-02-11T01:09:34.906Z,23.30
2023-02-11T01:12:02.028Z,20.70
2023-02-11T01:14:29.190Z,25.50
2023-02-11T01:16:56.364Z,25.70
2023-02-11T01:19:23.529Z,26.03
2023-02-11T01:21:50.708Z,22.63
2023-02-11T01:24:17.834Z,19.30
2023-02-11T01:26:45.042Z,31.70
2023-02-11T01:29:12.184Z,21.17
2023-02-11T01:31:39.509Z,18.03
2023-02-11T01:34:06.707Z,27.23
2023-02-11T01:36:33.827Z,20.77
2023-02-11T01:39:00.931Z,24.80
2023-02-11T01:41:28.052Z,21.60
2023-02-11T01:43:55.209Z,16.43
2023-02-11T01:46:34.644Z,23.73
2023-02-11T01:49:10.223Z,22.80
2023-02-11T01:51:40.067Z,33.40
2023-02-11T01:54:26.845Z,23.10
2023-02-11T01:57:14.237Z,25.90
2023-02-11T02:00:01.606Z,21.53
2023-02-11T02:02:47.719Z,21.23
2023-02-11T02:05:33.807Z,23.97
2023-02-11T02:08:13.180Z,25.10
2023-02-11T02:10:42.074Z,21.87
2023-02-11T02:13:09.261Z,21.47
2023-02-11T02:15:40.207Z,23.03
2023-02-11T02:18:13.363Z,24.17
2023-02-11T02:20:59.046Z,21.57
2023-02-11T02:23:26.313Z,21.67
2023-02-11T02:26:08.399Z,31.13
2023-02-11T02:28:55.485Z,31.07
2023-02-11T02:31:47.207Z,27.03
2023-02-11T02:34:18.052Z,27.23
2023-02-11T02:36:49.924Z,28.43
2023-02-11T02:39:22.189Z,31.07
2023-02-11T02:41:49.751Z,35.67
2023-02-11T02:44:16.944Z,33.53
2023-02-11T02:46:44.439Z,28.13
2023-02-11T02:49:15.816Z,31.33
2023-02-11T02:51:51.918Z,29.40
2023-02-11T02:54:34.012Z,29.97
2023-02-11T02:57:04.228Z,33.30
2023-02-11T02:59:37.098Z,33.40
2023-02-11T03:02:12.039Z,33.70
2023-02-11T03:04:39.165Z,33.00
2023-02-11T03:07:18.285Z,28.03
2023-02-11T03:09:57.551Z,32.50
2023-02-11T03:12:25.573Z,25.87
2023-02-11T03:14:52.948Z,35.77
2023-02-11T03:17:20.415Z,32.97
2023-02-11T03:19:49.051Z,26.30
2023-02-11T03:22:38.291Z,31.27
2023-02-11T03:25:05.774Z,27.57
2023-02-11T03:27:54.197Z,35.27
2023-02-11T03:30:23.162Z,35.97
2023-02-11T03:32:52.423Z,31.00
2023-02-11T03:35:25.261Z,32.90
2023-02-11T03:37:54.626Z,30.30
2023-02-11T03:40:31.989Z,33.97
2023-02-11T03:43:00.714Z,35.30
2023-02-11T03:45:28.399Z,40.77
2023-02-11T03:47:57.999Z,35.33
2023-02-11T03:50:25.602Z,42.07
2023-02-11T03:52:53.519Z,37.67
2023-02-11T03:55:21.755Z,38.53
2023-02-11T03:57:48.995Z,26.40
2023-02-11T04:00:16.522Z,24.10
2023-02-11T04:02:44.061Z,35.73
2023-02-11T04:05:15.790Z,26.10
2023-02-11T04:07:43.098Z,29.40
2023-02-11T04:10:10.474Z,25.43
2023-02-11T04:12:37.590Z,22.93
2023-02-11T04:15:04.871Z,21.67
2023-02-11T04:17:32.017Z,28.60
2023-02-11T04:19:59.155Z,22.17
2023-02-11T04:22:26.366Z,19.10
2023-02-11T04:24:53.498Z,18.40
2023-02-11T04:27:20.630Z,24.67
2023-02-11T04:29:48.208Z,23.70
2023-02-11T04:32:15.598Z,26.40
2023-02-11T04:34:42.723Z,28.27
2023-02-11T04:37:09.872Z,25.47
2023-02-11T04:39:37.148Z,31.93
2023-02-11T04:42:04.343Z,21.67
2023-02-11T04:44:31.489Z,25.43
2023-02-11T04:46:58.643Z,32.30
2023-02-11T04:49:26.116Z,38.70
2023-02-11T04:51:53.262Z,21.27
2023-02-11T04:54:20.447Z,34.50
2023-02-11T04:56:47.673Z,30.20
2023-02-11T04:59:14.875Z,41.17
2023-02-11T05:01:42.271Z,33.53
2023-02-11T05:04:09.578Z,35.23
2023-02-11T05:06:38.618Z,35.23
2023-02-11T05:09:05.814Z,34.83
2023-02-11T05:11:32.964Z,34.37
2023-02-11T05:14:00.135Z,31.20
2023-02-11T05:16:27.352Z,35.03
2023-02-11T05:18:55.797Z,41.17
2023-02-11T05:21:23.068Z,24.67
2023-02-11T05:23:50.220Z,35.30
2023-02-11T05:26:17.846Z,26.70
2023-02-11T05:28:45.483Z,39.20
2023-02-11T05:31:14.571Z,36.87
2023-02-11T05:33:42.096Z,32.37
2023-02-11T05:36:10.896Z,36.50
2023-02-11T05:38:38.561Z,34.30
2023-02-11T05:41:06.584Z,30.77
2023-02-11T05:43:35.386Z,38.83
2023-02-11T05:46:02.648Z,37.43
2023-02-11T05:48:29.881Z,36.40
2023-02-11T05:50:57.056Z,25.00
2023-02-11T05:53:24.208Z,33.90
2023-02-11T05:55:51.722Z,32.80
2023-02-11T05:58:19.016Z,23.57
2023-02-11T06:00:46.186Z,23.83
2023-02-11T06:03:13.337Z,25.37
2023-02-11T06:05:40.540Z,26.43
2023-02-11T06:08:07.702Z,24.10
2023-02-11T06:10:34.820Z,25.67
2023-02-11T06:13:02.234Z,25.60
2023-02-11T06:15:29.495Z,28.13
2023-02-11T06:17:56.861Z,26.53
2023-02-11T06:20:23.981Z,23.10
2023-02-11T06:22:51.176Z,23.70
2023-02-11T06:25:18.408Z,27.70
2023-02-11T06:27:45.595Z,24.30
2023-02-11T06:30:12.911Z,23.90
2023-02-11T06:32:44.663Z,21.73
2023-02-11T06:35:12.742Z,24.20
2023-02-11T06:37:40.321Z,25.43
2023-02-11T06:40:07.809Z,24.50
2023-02-11T06:42:36.122Z,25.20
2023-02-11T06:45:05.906Z,24.90
2023-02-11T06:47:33.083Z,23.10
2023-02-11T06:50:00.405Z,24.47
2023-02-11T06:52:27.541Z,23.43
2023-02-11T06:54:54.762Z,22.67
2023-02-11T06:57:21.920Z,22.57
2023-02-11T06:59:49.123Z,25.10
2023-02-11T07:02:17.985Z,24.77
2023-02-11T07:04:46.223Z,20.67
2023-02-11T07:07:13.470Z,22.93
2023-02-11T07:09:40.624Z,18.97
2023-02-11T07:12:07.844Z,18.20
2023-02-11T07:14:34.989Z,16.43
2023-02-11T07:17:04.042Z,16.63
2023-02-11T07:19:31.282Z,18.37
2023-02-11T07:21:58.497Z,16.30
2023-02-11T07:24:25.665Z,15.90
2023-02-11T07:26:53.801Z,13.03
2023-02-11T07:29:20.922Z,12.80
2023-02-11T07:31:48.232Z,11.90
2023-02-11T07:34:15.479Z,12.20
2023-02-11T07:36:43.792Z,14.37
2023-02-11T07:39:10.928Z,12.40
2023-02-11T07:41:39.141Z,14.00
2023-02-11T07:44:06.285Z,15.23
2023-02-11T07:46:35.696Z,14.17
2023-02-11T07:49:02.912Z,12.23
2023-02-11T07:51:30.760Z,16.70
2023-02-11T07:53:59.552Z,13.87
2023-02-11T07:56:26.772Z,14.97
2023-02-11T07:58:54.309Z,13.53
2023-02-11T08:01:24.985Z,13.93
2023-02-11T08:03:52.908Z,15.50
2023-02-11T08:06:20.982Z,15.33
2023-02-11T08:08:48.332Z,15.10
2023-02-11T08:11:20.659Z,11.40
2023-02-11T08:13:47.839Z,12.70
2023-02-11T08:16:34.785Z,15.57
2023-02-11T08:19:03.284Z,14.47
2023-02-11T08:21:30.550Z,12.70
2023-02-11T08:23:57.902Z,15.80
2023-02-11T08:26:29.592Z,15.63
2023-02-11T08:28:57.648Z,11.90
2023-02-11T08:31:26.652Z,13.00
2023-02-11T08:33:54.877Z,14.47
2023-02-11T08:36:23.638Z,11.67
2023-02-11T08:38:51.153Z,13.03
2023-02-11T08:41:18.846Z,15.20
2023-02-11T08:43:46.397Z,14.13
2023-02-11T08:46:15.383Z,16.67
2023-02-11T08:48:42.780Z,14.53
2023-02-11T08:51:10.796Z,19.13
2023-02-11T08:53:38.087Z,15.10
2023-02-11T08:56:06.082Z,13.87
2023-02-11T08:58:33.380Z,15.77
2023-02-11T09:01:00.720Z,13.83
2023-02-11T09:03:27.999Z,18.13
2023-02-11T09:05:55.141Z,16.90
2023-02-11T09:08:22.273Z,12.40
2023-02-11T09:10:49.855Z,17.43
2023-02-11T09:13:17.260Z,17.33
2023-02-11T09:15:47.591Z,15.77
2023-02-11T09:18:15.306Z,15.90
2023-02-11T09:20:42.459Z,19.03
2023-02-11T09:23:10.497Z,19.70
2023-02-11T09:25:40.395Z,21.00
2023-02-11T09:28:07.964Z,23.90
2023-02-11T09:30:35.323Z,21.33
2023-02-11T09:33:03.236Z,17.70
2023-02-11T09:35:30.469Z,20.97
2023-02-11T09:37:57.609Z,23.43
2023-02-11T09:40:24.724Z,17.87
2023-02-11T09:42:54.475Z,19.97
2023-02-11T09:45:24.660Z,22.20
2023-02-11T09:47:54.829Z,19.47
2023-02-11T09:50:29.010Z,21.50
2023-02-11T09:53:19.490Z,17.03
2023-02-11T09:55:48.490Z,18.43
2023-02-11T09:58:21.766Z,18.17
2023-02-11T10:01:07.794Z,16.47
2023-02-11T10:03:53.857Z,19.03
2023-02-11T10:06:21.038Z,16.07
2023-02-11T10:08:54.326Z,16.07
2023-02-11T10:11:32.684Z,21.53
2023-02-11T10:14:13.085Z,18.57
2023-02-11T10:16:56.494Z,19.90
2023-02-11T10:19:42.430Z,22.23
2023-02-11T10:22:09.549Z,17.43
2023-02-11T10:24:36.929Z,19.70
2023-02-11T10:27:13.377Z,19.10
2023-02-11T10:29:46.915Z,17.80
2023-02-11T10:32:27.449Z,22.27
2023-02-11T10:34:56.689Z,18.17
2023-02-11T10:37:23.797Z,19.63
2023-02-11T10:39:50.985Z,17.60
2023-02-11T10:42:18.137Z,16.77
2023-02-11T10:45:03.044Z,20.30
2023-02-11T10:47:32.861Z,19.53
2023-02-11T10:50:03.597Z,19.80
2023-02-11T10:52:31.661Z,22.27
2023-02-11T10:55:00.173Z,20.57
2023-02-11T10:57:30.834Z,16.20
2023-02-11T10:59:59.589Z,21.63
2023-02-11T11:02:34.310Z,20.93
2023-02-11T11:05:06.929Z,21.50
2023-02-11T11:07:34.770Z,22.00
2023-02-11T11:10:04.439Z,19.90
2023-02-11T11:12:46.591Z,20.10
2023-02-11T11:15:21.602Z,21.47
2023-02-11T11:17:49.754Z,22.37
2023-02-11T11:20:27.227Z,20.00
2023-02-11T11:23:13.172Z,20.13
2023-02-11T11:25:42.301Z,19.13
2023-02-11T11:28:19.549Z,22.73
2023-02-11T11:30:46.763Z,20.47
2023-02-11T11:33:20.400Z,25.30
2023-02-11T11:35:56.512Z,18.90
2023-02-11T11:38:24.553Z,22.17
2023-02-11T11:41:11.638Z,21.10
2023-02-11T11:43:38.780Z,19.63
2023-02-11T11:46:07.469Z,21.03
2023-02-11T11:48:43.463Z,23.23
2023-02-11T11:51:11.802Z,19.63
2023-02-11T11:53:44.084Z,20.93
2023-02-11T11:56:19.205Z,19.27
2023-02-11T11:58:46.481Z,19.17
2023-02-11T12:01:19.596Z,19.17
2023-02-11T12:04:16.138Z,18.63
2023-02-11T12:06:52.586Z,21.53
2023-02-11T12:09:19.675Z,18.07
2023-02-11T12:11:58.284Z,17.63
2023-02-11T12:14:28.302Z,18.60
2023-02-11T12:17:04.990Z,19.87
2023-02-11T12:19:54.881Z,20.73
2023-02-11T12:22:22.069Z,17.47
2023-02-11T12:25:09.486Z,19.30
2023-02-11T12:27:39.641Z,18.23
2023-02-11T12:30:18.791Z,18.60
2023-02-11T12:33:04.854Z,18.70
2023-02-11T12:35:37.325Z,23.07
2023-02-11T12:38:10.308Z,22.37
2023-02-11T12:40:51.739Z,22.87
2023-02-11T12:43:26.700Z,20.07
2023-02-11T12:46:10.282Z,20.37
2023-02-11T12:48:37.457Z,18.03
2023-02-11T12:51:11.063Z,27.83
2023-02-11T12:53:38.191Z,18.23
2023-02-11T12:56:07.183Z,21.73
2023-02-11T12:58:45.112Z,22.33
2023-02-11T13:01:19.692Z,21.03
2023-02-11T13:03:59.633Z,19.73
2023-02-11T13:06:33.630Z,20.67
2023-02-11T13:09:02.765Z,20.27
2023-02-11T13:11:38.975Z,22.40
2023-02-11T13:14:25.051Z,18.50
2023-02-11T13:16:53.364Z,23.67
2023-02-11T13:19:20.564Z,20.17
2023-02-11T13:22:03.750Z,20.13
2023-02-11T13:24:52.817Z,21.20
2023-02-11T13:27:38.705Z,22.53
2023-02-11T13:30:20.523Z,22.73
2023-02-11T13:32:57.026Z,18.30
2023-02-11T13:35:44.399Z,21.00
2023-02-11T13:38:25.218Z,22.20
2023-02-11T13:41:00.977Z,21.03
2023-02-11T13:43:28.854Z,19.60
2023-02-11T13:46:10.427Z,25.90
2023-02-11T13:48:38.869Z,19.67
2023-02-11T13:51:07.639Z,17.80
2023-02-11T13:54:03.916Z,25.60
2023-02-11T13:56:32.994Z,22.00
2023-02-11T13:59:02.290Z,21.77
2023-02-11T14:01:44.765Z,20.33
2023-02-11T14:04:46.877Z,20.87
2023-02-11T14:07:44.961Z,23.07
2023-02-11T14:10:44.032Z,20.30
2023-02-11T14:13:28.161Z,21.67
2023-02-11T14:16:17.112Z,19.03
2023-02-11T14:18:51.930Z,21.30
2023-02-11T14:21:25.177Z,15.50
2023-02-11T14:23:56.133Z,22.37
2023-02-11T14:26:26.306Z,22.77
2023-02-11T14:29:01.490Z,26.77
2023-02-11T14:31:34.831Z,24.13
2023-02-11T14:34:02.018Z,19.27
2023-02-11T14:36:55.416Z,20.83
2023-02-11T14:39:30.009Z,23.47
2023-02-11T14:41:57.329Z,18.87
2023-02-11T14:44:27.600Z,21.20
2023-02-11T14:46:55.644Z,20.73
2023-02-11T14:49:37.204Z,21.80
2023-02-11T14:52:16.975Z,17.83
2023-02-11T14:54:44.480Z,26.87
2023-02-11T14:57:14.671Z,20.33
2023-02-11T14:59:54.843Z,20.33
2023-02-11T15:02:23.710Z,20.73
2023-02-11T15:04:50.869Z,23.33
2023-02-11T15:07:18.277Z,19.93
2023-02-11T15:09:50.620Z,24.00
2023-02-11T15:12:20.204Z,21.83
2023-02-11T15:14:49.250Z,21.67
2023-02-11T15:17:18.445Z,25.40
2023-02-11T15:19:48.170Z,24.57
2023-02-11T15:22:21.917Z,23.50
2023-02-11T15:24:59.781Z,19.53
2023-02-11T15:27:26.971Z,19.23
2023-02-11T15:29:54.104Z,21.87
2023-02-11T15:32:23.198Z,21.43
2023-02-11T15:34:52.377Z,20.17
2023-02-11T15:37:24.011Z,24.40
2023-02-11T15:39:51.881Z,18.70
2023-02-11T15:42:19.042Z,21.83
2023-02-11T15:44:47.128Z,20.83
2023-02-11T15:47:21.269Z,20.00
2023-02-11T15:49:49.258Z,22.97
2023-02-11T15:52:24.118Z,16.83
2023-02-11T15:54:51.753Z,18.07
2023-02-11T15:57:18.994Z,24.37
2023-02-11T15:59:48.169Z,17.60
2023-02-11T16:02:18.380Z,21.00
2023-02-11T16:04:50.607Z,20.60
2023-02-11T16:07:36.203Z,19.60
2023-02-11T16:10:03.409Z,20.37
2023-02-11T16:12:30.557Z,18.23
2023-02-11T16:15:02.116Z,22.00
2023-02-11T16:17:30.027Z,15.87
2023-02-11T16:19:57.281Z,22.13
2023-02-11T16:22:29.879Z,21.33
2023-02-11T16:24:59.195Z,25.63
2023-02-11T16:27:29.709Z,25.93
2023-02-11T16:29:57.664Z,21.63
2023-02-11T16:32:26.222Z,23.50
2023-02-11T16:34:55.051Z,18.50
2023-02-11T16:37:22.568Z,23.43
2023-02-11T16:39:49.690Z,19.67
2023-02-11T16:42:16.882Z,19.73
2023-02-11T16:44:44.015Z,25.23
2023-02-11T16:47:18.212Z,21.10
2023-02-11T16:49:45.440Z,17.83
2023-02-11T16:52:19.102Z,19.53
2023-02-11T16:54:46.283Z,19.47
2023-02-11T16:57:17.657Z,20.23
2023-02-11T16:59:45.388Z,18.93
2023-02-11T17:02:18.522Z,19.30
2023-02-11T17:04:45.890Z,21.13
2023-02-11T17:07:13.382Z,20.83
2023-02-11T17:09:40.588Z,21.03
2023-02-11T17:12:07.798Z,20.63
2023-02-11T17:14:34.929Z,16.37
2023-02-11T17:17:02.121Z,19.43
2023-02-11T17:19:29.369Z,24.30
2023-02-11T17:21:56.511Z,17.70
2023-02-11T17:24:23.746Z,21.73
2023-02-11T17:26:51.192Z,17.53
2023-02-11T17:29:19.902Z,22.03
2023-02-11T17:31:47.335Z,21.57
2023-02-11T17:34:14.770Z,23.67
2023-02-11T17:36:41.918Z,19.57
2023-02-11T17:39:09.236Z,21.93
2023-02-11T17:41:39.774Z,23.07
2023-02-11T17:44:07.692Z,21.03
2023-02-11T17:46:35.152Z,24.80
2023-02-11T17:49:02.580Z,19.10
2023-02-11T17:51:33.223Z,24.80
2023-02-11T17:54:01.553Z,22.60
2023-02-11T17:56:30.885Z,18.53
2023-02-11T17:58:58.050Z,23.77
2023-02-11T18:01:27.903Z,19.70
2023-02-11T18:03:55.159Z,24.43
2023-02-11T18:06:22.295Z,23.13
2023-02-11T18:08:49.546Z,17.27
2023-02-11T18:11:16.820Z,16.87
2023-02-11T18:13:45.336Z,20.47
2023-02-11T18:16:15.743Z,21.57
2023-02-11T18:18:43.931Z,22.20
2023-02-11T18:21:18.398Z,21.03
2023-02-11T18:23:45.686Z,20.20
2023-02-11T18:26:13.683Z,18.93
2023-02-11T18:28:43.279Z,17.73
2023-02-11T18:31:12.696Z,23.03
2023-02-11T18:33:40.589Z,20.27
2023-02-11T18:36:08.297Z,23.63
2023-02-11T18:38:35.837Z,41.40
2023-02-11T18:41:03.075Z,70.87
2023-02-11T18:43:31.699Z,48.40
2023-02-11T18:45:58.894Z,40.27
2023-02-11T18:48:29.228Z,46.87
2023-02-11T18:50:56.667Z,42.07
2023-02-11T18:53:24.969Z,48.37
2023-02-11T18:55:54.896Z,31.77
2023-02-11T18:58:22.372Z,31.20
2023-02-11T19:00:50.334Z,32.30
2023-02-11T19:03:17.574Z,24.50
2023-02-11T19:05:46.095Z,28.33
2023-02-11T19:08:13.571Z,23.70
2023-02-11T19:10:46.089Z,23.67
2023-02-11T19:13:13.846Z,28.17
2023-02-11T19:15:42.065Z,27.77
2023-02-11T19:18:09.201Z,23.07
2023-02-11T19:20:36.401Z,24.87
2023-02-11T19:23:03.681Z,23.07
2023-02-11T19:25:30.863Z,23.37
2023-02-11T19:27:58.045Z,25.87
2023-02-11T19:30:25.229Z,26.53
2023-02-11T19:32:53.251Z,26.37
2023-02-11T19:35:20.527Z,28.53
2023-02-11T19:37:47.692Z,30.60
2023-02-11T19:40:16.459Z,23.10
2023-02-11T19:42:43.662Z,31.03
2023-02-11T19:45:10.856Z,24.93
2023-02-11T19:47:38.023Z,31.07
2023-02-11T19:50:06.148Z,29.23
2023-02-11T19:52:33.320Z,26.60
2023-02-11T19:55:00.912Z,30.60
2023-02-11T19:57:28.040Z,30.00
2023-02-11T19:59:56.890Z,28.80
2023-02-11T20:02:24.133Z,28.30
2023-02-11T20:04:51.325Z,32.80
2023-02-11T20:07:18.504Z,26.27
2023-02-11T20:09:45.669Z,35.13
2023-02-11T20:12:12.890Z,28.60
2023-02-11T20:14:40.053Z,31.77
2023-02-11T20:17:07.224Z,26.30
2023-02-11T20:19:34.405Z,31.43
2023-02-11T20:22:01.504Z,32.37
2023-02-11T20:24:28.644Z,29.40
2023-02-11T20:26:56.255Z,32.60
2023-02-11T20:29:23.964Z,34.70
2023-02-11T20:31:51.411Z,34.33
2023-02-11T20:34:18.901Z,36.57
2023-02-11T20:36:52.060Z,34.80
2023-02-11T20:39:21.759Z,28.47
2023-02-11T20:41:49.304Z,36.57
2023-02-11T20:44:16.474Z,27.93
2023-02-11T20:46:46.502Z,35.07
2023-02-11T20:49:14.836Z,33.00
2023-02-11T20:51:42.239Z,32.33
2023-02-11T20:54:12.799Z,32.70
2023-02-11T20:56:40.025Z,37.53
2023-02-11T20:59:07.214Z,31.37
2023-02-11T21:01:36.007Z,38.80
2023-02-11T21:04:05.132Z,34.70
2023-02-11T21:06:36.756Z,36.10
2023-02-11T21:09:05.140Z,35.70
2023-02-11T21:11:32.512Z,29.43
2023-02-11T21:14:00.335Z,35.93
2023-02-11T21:16:27.824Z,40.37
2023-02-11T21:18:55.530Z,35.30
2023-02-11T21:21:22.732Z,39.80
2023-02-11T21:23:50.053Z,36.30
2023-02-11T21:26:17.273Z,35.67
2023-02-11T21:28:44.523Z,39.23
2023-02-11T21:31:18.858Z,44.70
2023-02-11T21:33:46.077Z,35.23
2023-02-11T21:36:14.862Z,47.83
2023-02-11T21:38:42.285Z,43.80
2023-02-11T21:41:09.977Z,42.13
2023-02-11T21:43:37.165Z,34.97
2023-02-11T21:46:07.770Z,40.87
2023-02-11T21:48:35.380Z,40.17
2023-02-11T21:51:05.094Z,42.23
2023-02-11T21:53:32.590Z,40.90
2023-02-11T21:56:04.150Z,46.07
2023-02-11T21:58:31.301Z,38.47
2023-02-11T22:00:58.513Z,40.27
2023-02-11T22:03:25.659Z,43.17
2023-02-11T22:05:53.188Z,43.47
2023-02-11T22:08:20.605Z,45.57
2023-02-11T22:10:47.781Z,40.80
2023-02-11T22:13:14.946Z,43.63
2023-02-11T22:15:42.113Z,47.77
2023-02-11T22:18:09.369Z,45.43
2023-02-11T22:20:36.505Z,40.30
2023-02-11T22:23:03.688Z,44.53
2023-02-11T22:25:30.862Z,38.00
2023-02-11T22:27:58.002Z,34.13
2023-02-11T22:30:25.220Z,36.00
2023-02-11T22:32:52.396Z,38.47
2023-02-11T22:35:19.561Z,39.20
2023-02-11T22:37:46.782Z,40.90
2023-02-11T22:40:14.385Z,42.57
2023-02-11T22:42:41.565Z,35.07
2023-02-11T22:45:08.931Z,36.53
2023-02-11T22:47:37.510Z,38.93
2023-02-11T22:50:04.834Z,39.60
2023-02-11T22:52:32.012Z,39.73
2023-02-11T22:55:00.384Z,43.33
2023-02-11T22:57:27.688Z,37.70
2023-02-11T22:59:54.796Z,43.00
2023-02-11T23:02:22.121Z,39.07
2023-02-11T23:04:50.044Z,35.17
2023-02-11T23:07:17.403Z,37.90
2023-02-11T23:09:44.557Z,42.17
2023-02-11T23:12:11.674Z,49.87
2023-02-11T23:14:38.793Z,50.27
2023-02-11T23:17:05.902Z,35.37
2023-02-11T23:19:33.087Z,43.23
2023-02-11T23:22:00.227Z,38.77
2023-02-11T23:24:27.368Z,46.77
2023-02-11T23:26:54.591Z,46.33
2023-02-11T23:29:21.736Z,39.23
2023-02-11T23:31:49.948Z,37.27
2023-02-11T23:34:18.340Z,45.07
2023-02-11T23:36:45.516Z,42.13
2023-02-11T23:39:15.287Z,45.10
2023-02-11T23:41:42.405Z,48.07
2023-02-11T23:44:10.982Z,48.00
2023-02-11T23:46:38.698Z,51.10
2023-02-11T23:49:05.864Z,41.30
2023-02-11T23:51:32.978Z,45.17
2023-02-11T23:54:00.116Z,40.57
2023-02-11T23:56:28.439Z,41.87
2023-02-11T23:58:57.244Z,43.33
